createdAt,value
2023-05-04T00:00:48.641Z,560.00
2023-05-04T00:01:48.653Z,556.00
2023-05-04T00:02:48.791Z,558.00
2023-05-04T00:03:48.853Z,566.00
2023-05-04T00:04:48.745Z,569.00
2023-05-04T00:05:48.623Z,560.00
2023-05-04T00:06:48.613Z,570.00
2023-05-04T00:07:48.663Z,568.00
2023-05-04T00:08:48.584Z,568.00
2023-05-04T00:09:48.613Z,561.00
2023-05-04T00:10:48.578Z,561.00
2023-05-04T00:11:48.582Z,560.00
2023-05-04T00:12:48.665Z,554.00
2023-05-04T00:13:48.558Z,554.00
2023-05-04T00:14:48.567Z,543.00
2023-05-04T00:15:48.567Z,552.00
2023-05-04T00:16:48.738Z,552.00
2023-05-04T00:17:48.589Z,559.00
2023-05-04T00:18:48.514Z,545.00
2023-05-04T00:19:48.511Z,547.00
2023-05-04T00:20:48.512Z,545.00
2023-05-04T00:21:48.509Z,549.00
2023-05-04T00:22:48.536Z,543.00
2023-05-04T00:23:48.500Z,550.00
2023-05-04T00:24:48.471Z,550.00
2023-05-04T00:25:48.498Z,545.00
2023-05-04T00:26:48.512Z,544.00
2023-05-04T00:27:48.469Z,554.00
2023-05-04T00:28:48.487Z,550.00
2023-05-04T00:29:48.500Z,553.00
2023-05-04T00:30:48.471Z,555.00
2023-05-04T00:31:48.548Z,557.00
2023-05-04T00:32:48.535Z,550.00
2023-05-04T00:33:48.504Z,556.00
2023-05-04T00:34:48.564Z,559.00
2023-05-04T00:35:48.529Z,563.00
2023-05-04T00:36:48.537Z,566.00
2023-05-04T00:37:48.596Z,564.00
2023-05-04T00:38:48.608Z,566.00
2023-05-04T00:39:48.578Z,572.00
2023-05-04T00:40:48.600Z,572.00
2023-05-04T00:41:48.641Z,574.00
2023-05-04T00:42:48.633Z,577.00
2023-05-04T00:43:48.631Z,573.00
2023-05-04T00:44:48.621Z,579.00
2023-05-04T00:45:48.649Z,578.00
2023-05-04T00:46:48.699Z,582.00
2023-05-04T00:47:48.755Z,577.00
2023-05-04T00:48:48.682Z,578.00
2023-05-04T00:49:48.710Z,575.00
2023-05-04T00:50:48.733Z,582.00
2023-05-04T00:51:48.746Z,578.00
2023-05-04T00:52:48.766Z,584.00
2023-05-04T00:53:48.763Z,588.00
2023-05-04T00:54:48.778Z,580.00
2023-05-04T00:55:48.820Z,590.00
2023-05-04T00:56:48.837Z,574.00
2023-05-04T00:57:48.851Z,578.00
2023-05-04T00:58:48.830Z,582.00
2023-05-04T00:59:48.886Z,572.00
2023-05-04T01:00:48.908Z,574.00
2023-05-04T01:01:48.894Z,567.00
2023-05-04T01:02:48.999Z,573.00
2023-05-04T01:03:48.952Z,568.00
2023-05-04T01:04:48.942Z,567.00
2023-05-04T01:05:48.942Z,564.00
2023-05-04T01:06:48.999Z,568.00
2023-05-04T01:07:49.016Z,568.00
2023-05-04T01:08:49.026Z,565.00
2023-05-04T01:09:49.026Z,564.00
2023-05-04T01:10:49.055Z,561.00
2023-05-04T01:11:49.088Z,561.00
2023-05-04T01:12:49.122Z,560.00
2023-05-04T01:13:49.073Z,557.00
2023-05-04T01:14:49.128Z,560.00
2023-05-04T01:15:49.100Z,566.00
2023-05-04T01:16:49.168Z,562.00
2023-05-04T01:17:49.194Z,556.00
2023-05-04T01:18:49.158Z,556.00
2023-05-04T01:19:49.156Z,552.00
2023-05-04T01:20:49.163Z,553.00
2023-05-04T01:21:49.158Z,542.00
2023-05-04T01:22:49.210Z,550.00
2023-05-04T01:23:49.250Z,543.00
2023-05-04T01:24:49.241Z,543.00
2023-05-04T01:25:49.233Z,535.00
2023-05-04T01:26:49.259Z,535.00
2023-05-04T01:27:49.310Z,541.00
2023-05-04T01:28:49.323Z,541.00
2023-05-04T01:29:49.318Z,541.00
2023-05-04T01:30:49.368Z,537.00
2023-05-04T01:31:49.363Z,534.00
2023-05-04T01:32:49.400Z,545.00
2023-05-04T01:33:49.410Z,544.00
2023-05-04T01:34:49.417Z,533.00
2023-05-04T01:35:49.444Z,537.00
2023-05-04T01:36:49.445Z,531.00
2023-05-04T01:37:49.506Z,532.00
2023-05-04T01:38:49.472Z,530.00
2023-05-04T01:39:49.527Z,539.00
2023-05-04T01:40:49.539Z,528.00
2023-05-04T01:41:49.554Z,530.00
2023-05-04T01:42:49.586Z,528.00
2023-05-04T01:43:49.575Z,527.00
2023-05-04T01:44:49.598Z,530.00
2023-05-04T01:45:49.647Z,525.00
2023-05-04T01:46:49.624Z,521.00
2023-05-04T01:47:49.762Z,521.00
2023-05-04T01:48:49.678Z,526.00
2023-05-04T01:49:49.703Z,531.00
2023-05-04T01:50:49.731Z,526.00
2023-05-04T01:51:49.754Z,530.00
2023-05-04T01:52:49.768Z,519.00
2023-05-04T01:53:49.799Z,519.00
2023-05-04T01:54:49.817Z,524.00
2023-05-04T01:55:49.839Z,531.00
2023-05-04T01:56:49.861Z,528.00
2023-05-04T01:57:49.919Z,533.00
2023-05-04T01:58:49.872Z,520.00
2023-05-04T01:59:49.905Z,525.00
2023-05-04T02:00:49.926Z,521.00
2023-05-04T02:01:50.015Z,519.00
2023-05-04T02:02:50.121Z,518.00
2023-05-04T02:03:50.058Z,519.00
2023-05-04T02:04:50.045Z,529.00
2023-05-04T02:05:50.060Z,534.00
2023-05-04T02:06:50.087Z,532.00
2023-05-04T02:07:50.125Z,528.00
2023-05-04T02:08:50.153Z,530.00
2023-05-04T02:09:50.147Z,537.00
2023-05-04T02:10:50.169Z,538.00
2023-05-04T02:11:50.209Z,532.00
2023-05-04T02:12:50.267Z,528.00
2023-05-04T02:13:50.294Z,531.00
2023-05-04T02:14:50.308Z,531.00
2023-05-04T02:15:50.325Z,537.00
2023-05-04T02:16:50.335Z,530.00
2023-05-04T02:17:50.432Z,530.00
2023-05-04T02:18:50.395Z,530.00
2023-05-04T02:19:50.422Z,526.00
2023-05-04T02:20:50.434Z,526.00
2023-05-04T02:21:50.485Z,529.00
2023-05-04T02:22:50.500Z,534.00
2023-05-04T02:23:50.501Z,527.00
2023-05-04T02:24:50.517Z,536.00
2023-05-04T02:25:50.581Z,541.00
2023-05-04T02:26:50.599Z,547.00
2023-05-04T02:27:50.592Z,546.00
2023-05-04T02:28:50.619Z,549.00
2023-05-04T02:29:50.630Z,553.00
2023-05-04T02:30:50.690Z,556.00
2023-05-04T02:31:50.728Z,559.00
2023-05-04T02:32:50.757Z,563.00
2023-05-04T02:33:50.751Z,563.00
2023-05-04T02:34:50.765Z,570.00
2023-05-04T02:35:50.794Z,576.00
2023-05-04T02:36:50.832Z,574.00
2023-05-04T02:37:50.814Z,576.00
2023-05-04T02:38:50.845Z,573.00
2023-05-04T02:39:50.865Z,575.00
2023-05-04T02:40:50.893Z,579.00
2023-05-04T02:41:50.932Z,576.00
2023-05-04T02:42:50.931Z,577.00
2023-05-04T02:43:50.989Z,588.00
2023-05-04T02:44:50.978Z,590.00
2023-05-04T02:45:51.016Z,588.00
2023-05-04T02:46:51.052Z,592.00
2023-05-04T02:47:51.093Z,585.00
2023-05-04T02:48:51.086Z,594.00
2023-05-04T02:49:51.132Z,594.00
2023-05-04T02:50:51.157Z,598.00
2023-05-04T02:51:51.171Z,604.00
2023-05-04T02:52:51.208Z,616.00
2023-05-04T02:53:51.261Z,620.00
2023-05-04T02:54:52.915Z,626.00
2023-05-04T02:55:51.303Z,625.00
2023-05-04T02:56:51.330Z,630.00
2023-05-04T02:57:51.343Z,634.00
2023-05-04T02:58:51.363Z,634.00
2023-05-04T02:59:51.400Z,643.00
2023-05-04T03:00:51.410Z,645.00
2023-05-04T03:01:51.514Z,647.00
2023-05-04T03:02:51.485Z,652.00
2023-05-04T03:03:51.560Z,657.00
2023-05-04T03:04:51.567Z,659.00
2023-05-04T03:05:51.574Z,654.00
2023-05-04T03:06:51.600Z,662.00
2023-05-04T03:07:51.650Z,668.00
2023-05-04T03:08:51.673Z,675.00
2023-05-04T03:09:51.720Z,665.00
2023-05-04T03:10:51.752Z,682.00
2023-05-04T03:11:51.806Z,714.00
2023-05-04T03:12:51.857Z,696.00
2023-05-04T03:13:51.826Z,713.00
2023-05-04T03:14:51.884Z,720.00
2023-05-04T03:15:51.921Z,726.00
2023-05-04T03:16:52.018Z,711.00
2023-05-04T03:17:52.164Z,716.00
2023-05-04T03:18:56.697Z,732.00
2023-05-04T03:19:52.066Z,733.00
2023-05-04T03:20:52.072Z,733.00
2023-05-04T03:21:52.059Z,734.00
2023-05-04T03:22:52.050Z,735.00
2023-05-04T03:23:52.032Z,744.00
2023-05-04T03:24:52.054Z,741.00
2023-05-04T03:25:52.026Z,748.00
2023-05-04T03:26:52.018Z,738.00
2023-05-04T03:27:52.030Z,749.00
2023-05-04T03:28:52.031Z,749.00
2023-05-04T03:29:51.981Z,749.00
2023-05-04T03:30:51.958Z,743.00
2023-05-04T03:31:52.018Z,767.00
2023-05-04T03:32:51.985Z,746.00
2023-05-04T03:33:52.013Z,770.00
2023-05-04T03:34:51.954Z,777.00
2023-05-04T03:35:51.955Z,759.00
2023-05-04T03:36:52.008Z,779.00
2023-05-04T03:37:52.073Z,782.00
2023-05-04T03:38:52.080Z,784.00
2023-05-04T03:39:52.155Z,791.00
2023-05-04T03:40:52.207Z,801.00
2023-05-04T03:41:52.259Z,798.00
2023-05-04T03:42:52.343Z,802.00
2023-05-04T03:43:52.344Z,783.00
2023-05-04T03:44:52.371Z,792.00
2023-05-04T03:45:52.441Z,789.00
2023-05-04T03:46:52.495Z,790.00
2023-05-04T03:47:52.559Z,783.00
2023-05-04T03:48:52.540Z,780.00
2023-05-04T03:49:52.666Z,774.00
2023-05-04T03:50:52.661Z,778.00
2023-05-04T03:51:52.722Z,769.00
2023-05-04T03:52:52.773Z,758.00
2023-05-04T03:53:52.789Z,766.00
2023-05-04T03:54:52.842Z,741.00
2023-05-04T03:55:52.929Z,747.00
2023-05-04T03:56:52.953Z,756.00
2023-05-04T03:57:53.008Z,749.00
2023-05-04T03:58:53.044Z,757.00
2023-05-04T03:59:53.706Z,775.00
2023-05-04T04:00:53.150Z,782.00
2023-05-04T04:01:53.224Z,799.00
2023-05-04T04:02:53.356Z,813.00
2023-05-04T04:03:53.346Z,825.00
2023-05-04T04:04:53.328Z,842.00
2023-05-04T04:05:53.487Z,850.00
2023-05-04T04:06:53.381Z,854.00
2023-05-04T04:07:53.468Z,868.00
2023-05-04T04:08:53.507Z,883.00
2023-05-04T04:09:53.547Z,894.00
2023-05-04T04:10:53.602Z,894.00
2023-05-04T04:11:53.621Z,896.00
2023-05-04T04:12:53.745Z,901.00
2023-05-04T04:13:53.770Z,901.00
2023-05-04T04:14:53.804Z,912.00
2023-05-04T04:15:53.881Z,927.00
2023-05-04T04:16:53.908Z,922.00
2023-05-04T04:17:54.044Z,916.00
2023-05-04T04:18:54.027Z,925.00
2023-05-04T04:19:54.070Z,925.00
2023-05-04T04:20:54.151Z,921.00
2023-05-04T04:21:54.173Z,921.00
2023-05-04T04:22:54.240Z,927.00
2023-05-04T04:23:54.269Z,935.00
2023-05-04T04:24:54.357Z,942.00
2023-05-04T04:25:54.376Z,955.00
2023-05-04T04:26:54.495Z,968.00
2023-05-04T04:27:54.496Z,972.00
2023-05-04T04:28:54.546Z,973.00
2023-05-04T04:29:54.597Z,980.00
2023-05-04T04:30:54.673Z,985.00
2023-05-04T04:31:54.772Z,981.00
2023-05-04T04:32:54.804Z,988.00
2023-05-04T04:33:54.803Z,995.00
2023-05-04T04:34:54.864Z,987.00
2023-05-04T04:35:54.974Z,984.00
2023-05-04T04:36:54.981Z,986.00
2023-05-04T04:37:55.035Z,975.00
2023-05-04T04:38:55.102Z,974.00
2023-05-04T04:39:55.155Z,978.00
2023-05-04T04:40:55.193Z,963.00
2023-05-04T04:41:55.215Z,965.00
2023-05-04T04:42:55.298Z,956.00
2023-05-04T04:43:55.355Z,958.00
2023-05-04T04:44:55.405Z,959.00
2023-05-04T04:45:55.475Z,955.00
2023-05-04T04:46:55.536Z,956.00
2023-05-04T04:47:55.581Z,957.00
2023-05-04T04:48:55.618Z,969.00
2023-05-04T04:49:55.687Z,978.00
2023-05-04T04:50:55.688Z,1009.00
2023-05-04T04:51:55.747Z,1033.00
2023-05-04T04:52:55.765Z,1068.00
2023-05-04T04:53:55.812Z,1053.00
2023-05-04T04:54:55.851Z,1053.00
2023-05-04T04:55:55.887Z,1048.00
2023-05-04T04:56:55.897Z,1056.00
2023-05-04T04:57:55.974Z,1055.00
2023-05-04T04:58:55.967Z,1053.00
2023-05-04T04:59:55.990Z,1066.00
2023-05-04T05:00:56.054Z,1066.00
2023-05-04T05:01:56.048Z,1088.00
2023-05-04T05:02:56.157Z,1084.00
2023-05-04T05:03:56.104Z,1084.00
2023-05-04T05:04:56.135Z,1084.00
2023-05-04T05:05:56.182Z,1101.00
2023-05-04T05:06:56.175Z,1104.00
2023-05-04T05:07:56.227Z,1092.00
2023-05-04T05:08:56.198Z,1101.00
2023-05-04T05:09:56.325Z,1120.00
2023-05-04T05:10:56.306Z,1102.00
2023-05-04T05:11:56.289Z,1116.00
2023-05-04T05:12:56.367Z,1146.00
2023-05-04T05:13:56.391Z,1140.00
2023-05-04T05:14:56.458Z,1139.00
2023-05-04T05:15:56.461Z,1139.00
2023-05-04T05:16:56.518Z,1119.00
2023-05-04T05:17:56.695Z,1128.00
2023-05-04T05:18:56.590Z,1114.00
2023-05-04T05:19:56.578Z,1140.00
2023-05-04T05:20:56.656Z,1134.00
2023-05-04T05:21:56.683Z,1132.00
2023-05-04T05:22:56.733Z,1136.00
2023-05-04T05:23:56.775Z,1147.00
2023-05-04T05:24:56.813Z,1166.00
2023-05-04T05:25:56.838Z,1160.00
2023-05-04T05:26:56.879Z,1154.00
2023-05-04T05:27:56.928Z,1159.00
2023-05-04T05:28:56.989Z,1194.00
2023-05-04T05:29:56.993Z,1168.00
2023-05-04T05:30:57.117Z,1171.00
2023-05-04T05:31:57.097Z,1177.00
2023-05-04T05:32:57.168Z,1186.00
2023-05-04T05:33:58.780Z,1213.00
2023-05-04T05:34:57.174Z,1225.00
2023-05-04T05:35:57.308Z,1235.00
2023-05-04T05:36:57.226Z,1218.00
2023-05-04T05:37:57.278Z,1229.00
2023-05-04T05:38:57.294Z,1247.00
2023-05-04T05:39:57.324Z,1261.00
2023-05-04T05:40:57.359Z,1284.00
2023-05-04T05:41:57.370Z,1292.00
2023-05-04T05:42:57.725Z,1304.00
2023-05-04T05:43:57.512Z,1313.00
2023-05-04T05:44:57.449Z,1318.00
2023-05-04T05:45:57.513Z,1310.00
2023-05-04T05:46:57.548Z,1315.00
2023-05-04T05:47:57.832Z,1322.00
2023-05-04T05:48:57.546Z,1330.00
2023-05-04T05:49:57.606Z,1339.00
2023-05-04T05:50:57.617Z,1318.00
2023-05-04T05:51:57.632Z,1315.00
2023-05-04T05:52:57.753Z,1331.00
2023-05-04T05:53:57.725Z,1315.00
2023-05-04T05:54:58.216Z,1312.00
2023-05-04T05:55:57.736Z,1327.00
2023-05-04T05:56:57.785Z,1359.00
2023-05-04T05:57:58.240Z,1351.00
2023-05-04T05:58:57.780Z,1379.00
2023-05-04T05:59:57.820Z,1348.00
2023-05-04T06:00:57.841Z,1373.00
2023-05-04T06:01:57.830Z,1392.00
2023-05-04T06:02:57.907Z,1382.00
2023-05-04T06:03:58.152Z,1367.00
2023-05-04T06:04:58.011Z,1381.00
2023-05-04T06:05:57.935Z,1372.00
2023-05-04T06:06:57.960Z,1391.00
2023-05-04T06:07:57.940Z,1417.00
2023-05-04T06:08:57.963Z,1438.00
2023-05-04T06:09:57.952Z,1467.00
2023-05-04T06:10:57.984Z,1480.00
2023-05-04T06:11:58.009Z,1496.00
2023-05-04T06:12:58.018Z,1497.00
2023-05-04T06:13:57.997Z,1515.00
2023-05-04T06:14:58.081Z,1534.00
2023-05-04T06:15:58.094Z,1533.00
2023-05-04T06:16:58.082Z,1540.00
2023-05-04T06:17:58.142Z,1548.00
2023-05-04T06:18:58.086Z,1559.00
2023-05-04T06:19:58.062Z,1561.00
2023-05-04T06:20:58.049Z,1572.00
2023-05-04T06:21:58.061Z,1580.00
2023-05-04T06:22:58.078Z,1580.00
2023-05-04T06:23:58.040Z,1594.00
2023-05-04T06:25:02.773Z,1606.00
2023-05-04T06:25:59.026Z,1607.00
2023-05-04T06:26:58.019Z,1608.00
2023-05-04T06:27:58.037Z,1607.00
2023-05-04T06:28:58.005Z,1600.00
2023-05-04T06:29:58.000Z,1592.00
2023-05-04T06:30:58.006Z,1590.00
2023-05-04T06:31:58.064Z,1606.00
2023-05-04T06:32:58.013Z,1615.00
2023-05-04T06:33:57.959Z,1610.00
2023-05-04T06:34:58.765Z,1597.00
2023-05-04T06:35:57.955Z,1584.00
2023-05-04T06:36:57.991Z,1596.00
2023-05-04T06:37:58.002Z,1588.00
2023-05-04T06:38:58.033Z,1586.00
2023-05-04T06:39:58.066Z,1572.00
2023-05-04T06:40:58.128Z,1556.00
2023-05-04T06:41:58.167Z,1539.00
2023-05-04T06:42:58.202Z,1550.00
2023-05-04T06:43:58.950Z,1527.00
2023-05-04T06:44:58.302Z,1513.00
2023-05-04T06:45:58.400Z,1549.00
2023-05-04T06:46:58.450Z,1575.00
2023-05-04T06:47:58.513Z,1571.00
2023-05-04T06:48:58.551Z,1585.00
2023-05-04T06:49:58.621Z,1615.00
2023-05-04T06:51:00.736Z,1627.00
2023-05-04T06:51:58.691Z,1628.00
2023-05-04T06:52:58.690Z,1640.00
2023-05-04T06:53:58.638Z,1650.00
2023-05-04T06:54:58.676Z,1699.00
2023-05-04T06:55:58.668Z,1751.00
2023-05-04T06:56:58.655Z,1795.00
2023-05-04T06:57:58.627Z,1816.00
2023-05-04T06:58:58.615Z,1849.00
2023-05-04T06:59:58.611Z,1867.00
2023-05-04T07:00:58.625Z,1894.00
2023-05-04T07:01:58.586Z,1897.00
2023-05-04T07:02:58.633Z,1917.00
2023-05-04T07:03:58.672Z,1928.00
2023-05-04T07:04:58.578Z,1921.00
2023-05-04T07:05:58.587Z,1940.00
2023-05-04T07:06:58.556Z,1973.00
2023-05-04T07:07:58.787Z,1993.00
2023-05-04T07:08:58.562Z,2007.00
2023-05-04T07:09:58.516Z,2031.00
2023-05-04T07:10:58.581Z,2031.00
2023-05-04T07:11:58.560Z,2076.00
2023-05-04T07:12:58.556Z,2074.00
2023-05-04T07:13:58.509Z,2084.00
2023-05-04T07:14:58.526Z,2087.00
2023-05-04T07:15:58.539Z,2136.00
2023-05-04T07:16:58.507Z,2132.00
2023-05-04T07:17:58.546Z,2156.00
2023-05-04T07:18:58.455Z,2177.00
2023-05-04T07:19:58.451Z,2191.00
2023-05-04T07:21:10.744Z,2206.00
2023-05-04T07:21:59.478Z,2208.00
2023-05-04T07:22:58.443Z,2213.00
2023-05-04T07:23:58.439Z,2230.00
2023-05-04T07:24:58.465Z,2259.00
2023-05-04T07:25:58.451Z,2276.00
2023-05-04T07:26:58.433Z,2274.00
2023-05-04T07:27:58.390Z,2290.00
2023-05-04T07:28:58.423Z,2303.00
2023-05-04T07:29:58.411Z,2314.00
2023-05-04T07:30:58.400Z,2309.00
2023-05-04T07:31:58.461Z,2318.00
2023-05-04T07:32:58.483Z,2318.00
2023-05-04T07:33:58.571Z,2328.00
2023-05-04T07:34:58.571Z,2341.00
2023-05-04T07:35:58.629Z,2354.00
2023-05-04T07:36:58.689Z,2364.00
2023-05-04T07:37:58.801Z,2358.00
2023-05-04T07:38:58.745Z,2385.00
2023-05-04T07:39:58.824Z,2394.00
2023-05-04T07:40:58.934Z,2395.00
2023-05-04T07:41:58.945Z,2407.00
2023-05-04T07:42:59.264Z,2436.00
2023-05-04T07:43:59.073Z,2460.00
2023-05-04T07:44:59.108Z,2488.00
2023-05-04T07:45:59.224Z,2505.00
2023-05-04T07:46:59.230Z,2489.00
2023-05-04T07:47:59.315Z,2492.00
2023-05-04T07:48:59.350Z,2506.00
2023-05-04T07:49:59.408Z,2513.00
2023-05-04T07:50:59.469Z,2519.00
2023-05-04T07:51:59.529Z,2508.00
2023-05-04T07:52:59.561Z,2498.00
2023-05-04T07:53:59.631Z,2491.00
2023-05-04T07:54:59.726Z,2477.00
2023-05-04T07:55:59.794Z,2472.00
2023-05-04T07:56:59.828Z,2482.00
2023-05-04T07:57:59.899Z,2466.00
2023-05-04T07:58:59.943Z,2449.00
2023-05-04T08:00:00.004Z,2432.00
2023-05-04T08:01:00.099Z,2406.00
2023-05-04T08:02:00.189Z,2386.00
2023-05-04T08:03:00.238Z,2306.00
2023-05-04T08:04:00.285Z,2268.00
2023-05-04T08:05:00.324Z,2181.00
2023-05-04T08:06:00.387Z,2134.00
2023-05-04T08:07:00.453Z,2168.00
2023-05-04T08:08:00.495Z,2096.00
2023-05-04T08:09:00.557Z,2161.00
2023-05-04T08:10:00.617Z,2155.00
2023-05-04T08:11:15.901Z,2109.00
2023-05-04T08:12:01.686Z,2106.00
2023-05-04T08:13:00.706Z,2113.00
2023-05-04T08:14:00.660Z,2115.00
2023-05-04T08:15:00.625Z,2094.00
2023-05-04T08:16:00.670Z,2072.00
2023-05-04T08:17:00.631Z,2037.00
2023-05-04T08:18:00.784Z,2016.00
2023-05-04T08:19:00.635Z,2041.00
2023-05-04T08:20:00.612Z,2062.00
2023-05-04T08:21:00.687Z,2049.00
2023-05-04T08:22:00.752Z,1998.00
2023-05-04T08:23:00.839Z,2014.00
2023-05-04T08:24:00.915Z,2024.00
2023-05-04T08:25:00.969Z,2006.00
2023-05-04T08:26:01.021Z,1990.00
2023-05-04T08:27:08.180Z,2013.00
2023-05-04T08:28:02.083Z,1996.00
2023-05-04T08:29:01.064Z,2001.00
2023-05-04T08:30:01.075Z,2014.00
2023-05-04T08:31:01.028Z,2012.00
2023-05-04T08:32:01.217Z,1991.00
2023-05-04T08:33:01.043Z,1983.00
2023-05-04T08:34:01.032Z,1997.00
2023-05-04T08:35:01.004Z,2000.00
2023-05-04T08:36:01.015Z,2005.00
2023-05-04T08:37:01.077Z,1963.00
2023-05-04T08:38:01.151Z,1914.00
2023-05-04T08:39:01.189Z,1912.00
2023-05-04T08:40:01.279Z,1877.00
2023-05-04T08:41:01.309Z,1841.00
2023-05-04T08:42:01.448Z,1822.00
2023-05-04T08:43:02.293Z,1831.00
2023-05-04T08:44:01.551Z,1831.00
2023-05-04T08:45:01.588Z,1820.00
2023-05-04T08:46:01.732Z,1657.00
2023-05-04T08:47:01.670Z,1411.00
2023-05-04T08:48:01.916Z,1414.00
2023-05-04T08:49:01.705Z,1365.00
2023-05-04T08:50:01.773Z,1378.00
2023-05-04T08:51:01.717Z,1418.00
2023-05-04T08:52:01.714Z,1340.00
2023-05-04T08:53:01.799Z,1323.00
2023-05-04T08:54:01.901Z,1389.00
2023-05-04T08:55:01.793Z,1558.00
2023-05-04T08:56:01.802Z,1590.00
2023-05-04T08:57:01.823Z,1696.00
2023-05-04T08:58:01.854Z,1785.00
2023-05-04T08:59:01.962Z,1853.00
2023-05-04T09:00:02.001Z,1893.00
2023-05-04T09:01:02.148Z,1926.00
2023-05-04T09:02:02.142Z,1972.00
2023-05-04T09:03:02.215Z,1982.00
2023-05-04T09:04:02.263Z,2031.00
2023-05-04T09:05:02.319Z,2068.00
2023-05-04T09:06:02.324Z,2114.00
2023-05-04T09:07:02.378Z,2105.00
2023-05-04T09:08:02.444Z,2153.00
2023-05-04T09:09:02.457Z,2138.00
2023-05-04T09:10:02.594Z,2152.00
2023-05-04T09:11:02.563Z,2201.00
2023-05-04T09:12:02.587Z,2229.00
2023-05-04T09:13:02.856Z,2246.00
2023-05-04T09:14:02.666Z,2255.00
2023-05-04T09:15:02.892Z,2279.00
2023-05-04T09:16:02.763Z,2303.00
2023-05-04T09:17:02.840Z,2348.00
2023-05-04T09:18:02.818Z,2384.00
2023-05-04T09:19:02.833Z,2413.00
2023-05-04T09:20:02.835Z,2433.00
2023-05-04T09:21:02.835Z,2474.00
2023-05-04T09:22:02.873Z,2462.00
2023-05-04T09:23:02.915Z,2463.00
2023-05-04T09:24:02.916Z,2489.00
2023-05-04T09:25:03.018Z,2515.00
2023-05-04T09:26:02.935Z,2498.00
2023-05-04T09:27:02.935Z,2506.00
2023-05-04T09:28:02.975Z,2512.00
2023-05-04T09:29:02.926Z,2524.00
2023-05-04T09:30:02.961Z,2546.00
2023-05-04T09:31:03.054Z,2552.00
2023-05-04T09:32:02.950Z,2576.00
2023-05-04T09:33:03.006Z,2603.00
2023-05-04T09:34:02.969Z,2611.00
2023-05-04T09:35:03.181Z,2648.00
2023-05-04T09:36:02.966Z,2650.00
2023-05-04T09:37:02.954Z,2655.00
2023-05-04T09:38:03.317Z,2666.00
2023-05-04T09:39:02.986Z,2664.00
2023-05-04T09:40:03.034Z,2669.00
2023-05-04T09:41:03.073Z,2662.00
2023-05-04T09:42:03.148Z,2668.00
2023-05-04T09:43:03.837Z,2691.00
2023-05-04T09:44:03.177Z,2678.00
2023-05-04T09:45:03.587Z,2749.00
2023-05-04T09:46:03.389Z,2738.00
2023-05-04T09:47:03.327Z,2738.00
2023-05-04T09:48:03.410Z,2756.00
2023-05-04T09:49:03.439Z,2762.00
2023-05-04T09:50:03.575Z,2775.00
2023-05-04T09:51:03.553Z,2792.00
2023-05-04T09:52:03.607Z,2797.00
2023-05-04T09:53:03.654Z,2811.00
2023-05-04T09:54:03.699Z,2820.00
2023-05-04T09:55:03.882Z,2818.00
2023-05-04T09:56:06.523Z,2818.00
2023-05-04T09:57:03.780Z,2819.00
2023-05-04T09:58:04.101Z,2819.00
2023-05-04T09:59:03.773Z,2819.00
2023-05-04T10:00:03.738Z,2822.00
2023-05-04T10:01:03.734Z,2832.00
2023-05-04T10:02:14.558Z,2817.00
2023-05-04T10:03:04.752Z,2818.00
2023-05-04T10:04:03.726Z,2820.00
2023-05-04T10:05:03.917Z,2821.00
2023-05-04T10:06:03.716Z,2824.00
2023-05-04T10:07:03.704Z,2820.00
2023-05-04T10:08:03.697Z,2822.00
2023-05-04T10:09:03.682Z,2815.00
2023-05-04T10:10:03.679Z,2794.00
2023-05-04T10:11:03.701Z,2794.00
2023-05-04T10:12:03.747Z,2800.00
2023-05-04T10:13:03.877Z,2809.00
2023-05-04T10:14:03.864Z,2812.00
2023-05-04T10:15:04.009Z,2821.00
2023-05-04T10:16:03.996Z,2805.00
2023-05-04T10:17:04.021Z,2817.00
2023-05-04T10:18:04.141Z,2834.00
2023-05-04T10:19:04.104Z,2838.00
2023-05-04T10:20:04.162Z,2843.00
2023-05-04T10:21:04.241Z,2824.00
2023-05-04T10:22:04.304Z,2824.00
2023-05-04T10:23:04.358Z,2835.00
2023-05-04T10:24:04.379Z,2827.00
2023-05-04T10:25:04.536Z,2831.00
2023-05-04T10:26:04.488Z,2828.00
2023-05-04T10:27:04.535Z,2791.00
2023-05-04T10:28:04.577Z,2807.00
2023-05-04T10:29:04.607Z,2811.00
2023-05-04T10:30:04.648Z,2827.00
2023-05-04T10:31:04.733Z,2828.00
2023-05-04T10:32:04.871Z,2834.00
2023-05-04T10:33:04.819Z,2825.00
2023-05-04T10:34:04.875Z,2833.00
2023-05-04T10:35:05.103Z,2820.00
2023-05-04T10:36:04.958Z,2813.00
2023-05-04T10:37:04.970Z,2789.00
2023-05-04T10:38:05.050Z,2802.00
2023-05-04T10:39:05.093Z,2813.00
2023-05-04T10:40:06.531Z,2811.00
2023-05-04T10:41:05.234Z,2817.00
2023-05-04T10:42:05.306Z,2822.00
2023-05-04T10:43:05.369Z,2831.00
2023-05-04T10:44:05.392Z,2830.00
2023-05-04T10:45:05.552Z,2790.00
2023-05-04T10:46:05.460Z,2813.00
2023-05-04T10:47:05.626Z,2821.00
2023-05-04T10:48:05.525Z,2836.00
2023-05-04T10:49:05.557Z,2832.00
2023-05-04T10:50:05.593Z,2843.00
2023-05-04T10:51:05.666Z,2849.00
2023-05-04T10:52:05.763Z,2834.00
2023-05-04T10:53:05.725Z,2834.00
2023-05-04T10:54:05.772Z,2852.00
2023-05-04T10:55:05.992Z,2848.00
2023-05-04T10:56:05.820Z,2830.00
2023-05-04T10:57:05.861Z,2816.00
2023-05-04T10:58:05.915Z,2805.00
2023-05-04T10:59:05.932Z,2808.00
2023-05-04T11:00:05.951Z,2806.00
2023-05-04T11:01:06.025Z,2808.00
2023-05-04T11:02:06.044Z,2809.00
2023-05-04T11:03:06.167Z,2792.00
2023-05-04T11:04:06.103Z,2782.00
2023-05-04T11:05:06.355Z,2776.00
2023-05-04T11:06:06.135Z,2776.00
2023-05-04T11:07:06.293Z,2781.00
2023-05-04T11:08:06.219Z,2782.00
2023-05-04T11:09:06.237Z,2794.00
2023-05-04T11:10:06.266Z,2801.00
2023-05-04T11:11:06.294Z,2796.00
2023-05-04T11:12:06.317Z,2780.00
2023-05-04T11:13:08.080Z,2781.00
2023-05-04T11:14:06.290Z,2785.00
2023-05-04T11:15:06.492Z,2791.00
2023-05-04T11:16:06.339Z,2790.00
2023-05-04T11:17:15.656Z,2795.00
2023-05-04T11:18:07.300Z,2781.00
2023-05-04T11:19:06.267Z,2795.00
2023-05-04T11:20:06.235Z,2814.00
2023-05-04T11:21:06.241Z,2825.00
2023-05-04T11:22:06.218Z,2832.00
2023-05-04T11:23:06.232Z,2832.00
2023-05-04T11:24:06.223Z,2843.00
2023-05-04T11:25:06.315Z,2841.00
2023-05-04T11:26:06.223Z,2837.00
2023-05-04T11:27:06.204Z,2840.00
2023-05-04T11:28:06.221Z,2810.00
2023-05-04T11:29:06.391Z,2805.00
2023-05-04T11:30:06.182Z,2805.00
2023-05-04T11:31:06.213Z,2824.00
2023-05-04T11:32:06.166Z,2800.00
2023-05-04T11:33:06.233Z,2763.00
2023-05-04T11:34:06.487Z,2775.00
2023-05-04T11:35:06.410Z,2749.00
2023-05-04T11:36:06.361Z,2745.00
2023-05-04T11:37:06.121Z,2734.00
2023-05-04T11:38:06.123Z,2725.00
2023-05-04T11:39:06.178Z,2679.00
2023-05-04T11:40:06.159Z,2698.00
2023-05-04T11:41:06.180Z,2707.00
2023-05-04T11:42:06.195Z,2745.00
2023-05-04T11:43:06.238Z,2744.00
2023-05-04T11:44:06.248Z,2682.00
2023-05-04T11:45:06.371Z,2660.00
2023-05-04T11:46:06.341Z,2709.00
2023-05-04T11:47:06.315Z,2683.00
2023-05-04T11:48:06.395Z,2671.00
2023-05-04T11:49:06.382Z,2620.00
2023-05-04T11:50:06.404Z,2609.00
2023-05-04T11:51:06.421Z,2596.00
2023-05-04T11:52:06.475Z,2611.00
2023-05-04T11:53:06.500Z,2585.00
2023-05-04T11:54:06.556Z,2586.00
2023-05-04T11:55:06.748Z,2592.00
2023-05-04T11:56:06.679Z,2592.00
2023-05-04T11:57:06.646Z,2561.00
2023-05-04T11:58:06.840Z,2548.00
2023-05-04T11:59:06.795Z,2531.00
2023-05-04T12:00:06.782Z,2494.00
2023-05-04T12:01:06.849Z,2502.00
2023-05-04T12:02:06.891Z,2439.00
2023-05-04T12:03:07.008Z,2408.00
2023-05-04T12:04:07.062Z,2387.00
2023-05-04T12:05:07.239Z,2356.00
2023-05-04T12:06:07.167Z,2349.00
2023-05-04T12:07:07.133Z,2337.00
2023-05-04T12:08:07.162Z,2345.00
2023-05-04T12:09:07.235Z,2328.00
2023-05-04T12:10:07.266Z,2270.00
2023-05-04T12:11:07.362Z,2259.00
2023-05-04T12:12:07.371Z,2230.00
2023-05-04T12:13:07.427Z,2218.00
2023-05-04T12:14:07.879Z,2229.00
2023-05-04T12:15:08.504Z,2184.00